createdAt,value
2022-10-04T00:00:33.502Z,12.40
2022-10-04T00:03:09.131Z,15.40
2022-10-04T00:05:37.248Z,13.77
2022-10-04T00:08:44.264Z,11.20
2022-10-04T00:11:37.697Z,13.20
2022-10-04T00:14:17.167Z,13.73
2022-10-04T00:16:44.347Z,14.60
2022-10-04T00:19:19.765Z,18.07
2022-10-04T00:21:58.321Z,11.43
2022-10-04T00:24:34.298Z,16.40
2022-10-04T00:27:19.784Z,18.50
2022-10-04T00:30:10.549Z,17.07
2022-10-04T00:32:42.954Z,12.10
2022-10-04T00:35:24.901Z,13.73
2022-10-04T00:37:56.460Z,16.03
2022-10-04T00:40:28.183Z,18.00
2022-10-04T00:43:01.124Z,17.93
2022-10-04T00:45:47.162Z,13.77
2022-10-04T00:48:56.621Z,15.23
2022-10-04T00:51:38.491Z,18.37
2022-10-04T00:54:12.196Z,15.13
2022-10-04T00:56:56.155Z,17.60
2022-10-04T00:59:28.480Z,16.70
2022-10-04T01:02:06.040Z,14.20
2022-10-04T01:05:00.319Z,18.03
2022-10-04T01:07:33.193Z,16.73
2022-10-04T01:10:10.463Z,21.10
2022-10-04T01:13:08.480Z,15.77
2022-10-04T01:15:42.709Z,16.80
2022-10-04T01:18:29.158Z,16.33
2022-10-04T01:21:00.312Z,18.10
2022-10-04T01:23:34.372Z,13.97
2022-10-04T01:26:03.136Z,13.00
2022-10-04T01:28:38.416Z,13.30
2022-10-04T01:31:05.324Z,12.90
2022-10-04T01:33:32.034Z,17.13
2022-10-04T01:35:58.764Z,13.50
2022-10-04T01:38:25.420Z,17.60
2022-10-04T01:41:00.368Z,24.30
2022-10-04T01:43:32.870Z,10.57
2022-10-04T01:46:09.888Z,17.40
2022-10-04T01:48:38.803Z,17.20
2022-10-04T01:51:28.573Z,15.93
2022-10-04T01:54:09.472Z,17.67
2022-10-04T01:56:57.005Z,12.03
2022-10-04T01:59:36.943Z,15.47
2022-10-04T02:02:12.371Z,15.83
2022-10-04T02:04:40.996Z,12.73
2022-10-04T02:07:15.839Z,17.43
2022-10-04T02:09:46.647Z,15.20
2022-10-04T02:12:19.831Z,16.77
2022-10-04T02:14:55.656Z,19.07
2022-10-04T02:17:28.424Z,11.00
2022-10-04T02:19:56.845Z,14.33
2022-10-04T02:22:25.338Z,15.60
2022-10-04T02:24:55.241Z,13.50
2022-10-04T02:27:29.945Z,17.33
2022-10-04T02:30:05.295Z,12.37
2022-10-04T02:32:51.934Z,10.83
2022-10-04T02:35:20.011Z,14.90
2022-10-04T02:37:53.815Z,15.03
2022-10-04T02:40:26.528Z,12.83
2022-10-04T02:43:21.443Z,17.27
2022-10-04T02:46:02.983Z,15.80
2022-10-04T02:48:49.635Z,13.53
2022-10-04T02:51:22.040Z,14.30
2022-10-04T02:54:02.309Z,10.90
2022-10-04T02:56:30.946Z,11.30
2022-10-04T02:59:02.152Z,15.20
2022-10-04T03:01:43.654Z,12.60
2022-10-04T03:04:14.919Z,11.23
2022-10-04T03:06:44.919Z,10.23
2022-10-04T03:09:12.332Z,10.43
2022-10-04T03:11:43.393Z,13.37
2022-10-04T03:14:16.029Z,13.37
2022-10-04T03:16:45.324Z,13.60
2022-10-04T03:19:15.131Z,10.97
2022-10-04T03:21:44.776Z,13.83
2022-10-04T03:24:18.828Z,14.87
2022-10-04T03:26:49.589Z,16.07
2022-10-04T03:29:19.105Z,13.13
2022-10-04T03:31:51.402Z,10.47
2022-10-04T03:34:21.425Z,17.70
2022-10-04T03:36:49.587Z,15.47
2022-10-04T03:39:28.332Z,18.27
2022-10-04T03:41:55.319Z,16.00
2022-10-04T03:44:23.380Z,17.80
2022-10-04T03:46:50.104Z,14.13
2022-10-04T03:49:37.632Z,18.20
2022-10-04T03:52:04.772Z,15.60
2022-10-04T03:54:33.118Z,15.83
2022-10-04T03:57:01.890Z,19.80
2022-10-04T03:59:29.629Z,16.80
2022-10-04T04:02:06.547Z,15.50
2022-10-04T04:05:02.601Z,14.00
2022-10-04T04:07:41.987Z,12.80
2022-10-04T04:10:21.474Z,15.10
2022-10-04T04:12:59.021Z,18.73
2022-10-04T04:15:31.044Z,16.53
2022-10-04T04:18:02.640Z,14.27
2022-10-04T04:20:33.484Z,16.40
2022-10-04T04:23:15.199Z,17.27
2022-10-04T04:25:48.208Z,12.40
2022-10-04T04:28:30.001Z,14.20
2022-10-04T04:31:14.061Z,18.07
2022-10-04T04:34:01.257Z,18.93
2022-10-04T04:36:30.740Z,17.70
2022-10-04T04:39:39.670Z,12.97
2022-10-04T04:42:18.015Z,13.97
2022-10-04T04:44:47.659Z,15.73
2022-10-04T04:47:33.963Z,12.57
2022-10-04T04:50:13.140Z,17.30
2022-10-04T04:52:42.518Z,13.80
2022-10-04T04:55:21.270Z,12.47
2022-10-04T04:57:50.703Z,17.40
2022-10-04T05:00:20.262Z,13.20
2022-10-04T05:02:59.133Z,13.63
2022-10-04T05:05:33.478Z,13.87
2022-10-04T05:08:16.321Z,15.07
2022-10-04T05:10:51.201Z,13.20
2022-10-04T05:13:19.915Z,14.80
2022-10-04T05:15:48.993Z,12.07
2022-10-04T05:18:32.009Z,11.53
2022-10-04T05:21:23.233Z,18.13
2022-10-04T05:23:50.081Z,14.30
2022-10-04T05:26:24.798Z,15.17
2022-10-04T05:28:51.509Z,18.10
2022-10-04T05:31:46.769Z,16.93
2022-10-04T05:34:26.998Z,19.27
2022-10-04T05:37:20.521Z,11.37
2022-10-04T05:40:15.037Z,13.63
2022-10-04T05:42:45.327Z,13.80
2022-10-04T05:45:30.766Z,12.60
2022-10-04T05:48:08.768Z,15.50
2022-10-04T05:50:43.515Z,13.17
2022-10-04T05:53:31.201Z,15.47
2022-10-04T05:56:42.043Z,16.37
2022-10-04T05:59:31.502Z,13.07
2022-10-04T06:02:13.098Z,14.97
2022-10-04T06:04:57.937Z,10.77
2022-10-04T06:07:33.989Z,13.90
2022-10-04T06:10:25.827Z,11.83
2022-10-04T06:13:20.433Z,11.40
2022-10-04T06:15:57.052Z,19.90
2022-10-04T06:18:29.559Z,12.90
2022-10-04T06:21:11.821Z,17.83
2022-10-04T06:23:48.799Z,16.53
2022-10-04T06:26:25.585Z,18.57
2022-10-04T06:28:59.969Z,12.73
2022-10-04T06:32:08.848Z,20.63
2022-10-04T06:35:02.495Z,14.30
2022-10-04T06:37:53.347Z,14.93
2022-10-04T06:40:54.269Z,20.47
2022-10-04T06:43:31.877Z,17.23
2022-10-04T06:46:17.457Z,16.93
2022-10-04T06:49:09.635Z,12.70
2022-10-04T06:52:03.478Z,15.07
2022-10-04T06:54:42.746Z,13.00
2022-10-04T06:57:22.880Z,14.63
2022-10-04T07:00:08.637Z,15.87
2022-10-04T07:02:51.486Z,15.00
2022-10-04T07:05:33.581Z,14.37
2022-10-04T07:08:06.823Z,12.53
2022-10-04T07:10:45.022Z,11.53
2022-10-04T07:13:35.041Z,13.67
2022-10-04T07:16:17.746Z,17.33
2022-10-04T07:18:58.147Z,18.53
2022-10-04T07:21:33.508Z,15.47
2022-10-04T07:24:03.607Z,11.07
2022-10-04T07:26:36.160Z,24.03
2022-10-04T07:29:21.507Z,10.93
2022-10-04T07:31:51.409Z,12.10
2022-10-04T07:34:25.037Z,11.17
2022-10-04T07:37:08.635Z,13.27
2022-10-04T07:39:56.365Z,12.77
2022-10-04T07:42:37.167Z,12.23
2022-10-04T07:45:30.267Z,8.90
2022-10-04T07:48:11.108Z,13.83
2022-10-04T07:51:18.298Z,9.63
2022-10-04T07:54:01.623Z,11.77
2022-10-04T07:56:55.080Z,10.30
2022-10-04T07:59:52.532Z,10.03
2022-10-04T08:02:41.116Z,11.80
2022-10-04T08:05:24.310Z,9.53
2022-10-04T08:07:57.581Z,10.43
2022-10-04T08:10:40.296Z,8.90
2022-10-04T08:13:37.979Z,10.73
2022-10-04T08:16:31.023Z,8.33
2022-10-04T08:19:36.805Z,11.23
2022-10-04T08:22:33.172Z,9.17
2022-10-04T08:25:06.128Z,8.50
2022-10-04T08:28:20.771Z,12.03
2022-10-04T08:31:22.977Z,12.43
2022-10-04T08:34:11.625Z,10.13
2022-10-04T08:36:56.465Z,9.00
2022-10-04T08:40:01.701Z,7.50
2022-10-04T08:42:55.445Z,8.37
2022-10-04T08:45:43.751Z,10.80
2022-10-04T08:48:24.493Z,8.20
2022-10-04T08:51:00.110Z,9.60
2022-10-04T08:53:48.669Z,7.40
2022-10-04T08:56:15.228Z,9.30
2022-10-04T08:59:02.830Z,12.23
2022-10-04T09:01:51.182Z,7.37
2022-10-04T09:04:48.828Z,10.27
2022-10-04T09:07:40.161Z,5.10
2022-10-04T09:10:36.560Z,8.50
2022-10-04T09:13:22.122Z,13.87
2022-10-04T09:15:56.069Z,10.07
2022-10-04T09:18:48.549Z,7.10
2022-10-04T09:21:35.445Z,10.67
2022-10-04T09:24:19.244Z,6.57
2022-10-04T09:27:50.372Z,6.90
2022-10-04T09:30:22.298Z,7.43
2022-10-04T09:33:13.411Z,6.77
2022-10-04T09:36:10.754Z,6.70
2022-10-04T09:39:28.895Z,5.57
2022-10-04T09:42:26.906Z,8.63
2022-10-04T09:45:52.175Z,7.00
2022-10-04T09:48:36.869Z,9.30
2022-10-04T09:51:19.777Z,8.00
2022-10-04T09:53:52.885Z,6.90
2022-10-04T09:56:42.157Z,7.10
2022-10-04T09:59:27.134Z,7.73
2022-10-04T10:02:31.610Z,6.53
2022-10-04T10:05:26.904Z,12.90
2022-10-04T10:08:40.947Z,5.93
2022-10-04T10:11:32.379Z,7.33
2022-10-04T10:14:36.983Z,7.10
2022-10-04T10:17:22.468Z,7.70
2022-10-04T10:20:18.350Z,9.50
2022-10-04T10:23:10.859Z,6.90
2022-10-04T10:25:48.238Z,5.30
2022-10-04T10:28:48.419Z,7.20
2022-10-04T10:31:38.003Z,6.60
2022-10-04T10:34:40.971Z,7.20
2022-10-04T10:37:17.345Z,8.80
2022-10-04T10:39:59.117Z,5.37
2022-10-04T10:42:54.728Z,6.40
2022-10-04T10:45:27.685Z,6.17
2022-10-04T10:48:04.687Z,9.93
2022-10-04T10:51:03.235Z,9.90
2022-10-04T10:53:41.305Z,6.63
2022-10-04T10:56:13.978Z,5.10
2022-10-04T10:58:51.829Z,5.17
2022-10-04T11:01:30.111Z,15.47
2022-10-04T11:04:26.217Z,6.43
2022-10-04T11:07:13.933Z,9.50
2022-10-04T11:10:14.692Z,5.97
2022-10-04T11:12:57.883Z,6.13
2022-10-04T11:15:58.854Z,6.33
2022-10-04T11:19:02.903Z,4.53
2022-10-04T11:22:06.814Z,5.90
2022-10-04T11:24:44.417Z,7.67
2022-10-04T11:27:29.575Z,6.93
2022-10-04T11:30:16.751Z,4.67
2022-10-04T11:33:20.465Z,6.50
2022-10-04T11:36:25.892Z,11.30
2022-10-04T11:39:01.180Z,7.00
2022-10-04T11:41:43.234Z,5.23
2022-10-04T11:44:31.398Z,4.63
2022-10-04T11:47:09.834Z,7.03
2022-10-04T11:50:12.159Z,5.73
2022-10-04T11:53:14.054Z,4.13
2022-10-04T11:56:04.407Z,5.83
2022-10-04T11:58:45.312Z,5.00
2022-10-04T12:01:14.066Z,5.20
2022-10-04T12:03:55.341Z,6.47
2022-10-04T12:06:40.135Z,4.47
2022-10-04T12:09:34.383Z,6.17
2022-10-04T12:12:39.422Z,5.50
2022-10-04T12:15:38.531Z,5.83
2022-10-04T12:18:32.857Z,7.90
2022-10-04T12:21:29.297Z,3.90
2022-10-04T12:23:58.869Z,4.13
2022-10-04T12:26:31.948Z,5.50
2022-10-04T12:29:42.604Z,6.70
2022-10-04T12:32:34.219Z,4.87
2022-10-04T12:35:36.091Z,4.53
2022-10-04T12:38:15.607Z,5.93
2022-10-04T12:40:48.377Z,5.40
2022-10-04T12:43:56.825Z,5.47
2022-10-04T12:47:01.772Z,2.70
2022-10-04T12:49:48.500Z,4.80
2022-10-04T12:52:15.412Z,5.20
2022-10-04T12:54:52.536Z,6.00
2022-10-04T12:57:45.774Z,10.07
2022-10-04T13:00:19.490Z,6.30
2022-10-04T13:03:21.943Z,4.83
2022-10-04T13:06:20.378Z,10.07
2022-10-04T13:09:03.016Z,4.67
2022-10-04T13:11:54.336Z,6.83
2022-10-04T13:14:49.032Z,4.53
2022-10-04T13:17:57.837Z,3.97
2022-10-04T13:20:42.932Z,3.90
2022-10-04T13:23:27.392Z,4.03
2022-10-04T13:26:25.080Z,4.77
2022-10-04T13:29:20.283Z,3.30
2022-10-04T13:31:48.946Z,3.43
2022-10-04T13:34:26.761Z,4.73
2022-10-04T13:37:20.411Z,10.27
2022-10-04T13:40:08.808Z,5.77
2022-10-04T13:42:58.806Z,3.93
2022-10-04T13:45:49.485Z,4.90
2022-10-04T13:48:32.864Z,4.00
2022-10-04T13:51:23.789Z,5.30
2022-10-04T13:54:39.224Z,6.53
2022-10-04T13:57:31.593Z,8.40
2022-10-04T14:00:10.899Z,8.90
2022-10-04T14:03:15.011Z,4.07
2022-10-04T14:06:14.738Z,4.60
2022-10-04T14:09:11.257Z,3.30
2022-10-04T14:12:07.405Z,4.73
2022-10-04T14:15:04.234Z,4.30
2022-10-04T14:17:48.965Z,3.73
2022-10-04T14:20:43.502Z,3.30
2022-10-04T14:23:34.362Z,5.40
2022-10-04T14:26:39.475Z,3.77
2022-10-04T14:29:20.590Z,10.40
2022-10-04T14:32:23.721Z,3.67
2022-10-04T14:35:16.853Z,4.97
2022-10-04T14:37:49.199Z,5.83
2022-10-04T14:40:44.509Z,3.37
2022-10-04T14:43:29.625Z,6.10
2022-10-04T14:46:22.430Z,7.87
2022-10-04T14:49:37.537Z,5.23
2022-10-04T14:52:26.840Z,4.60
2022-10-04T14:55:10.535Z,6.87
2022-10-04T14:57:54.629Z,5.90
2022-10-04T15:00:23.659Z,4.20
2022-10-04T15:03:28.754Z,4.00
2022-10-04T15:06:23.140Z,5.13
2022-10-04T15:09:11.668Z,6.73
2022-10-04T15:12:21.681Z,7.50
2022-10-04T15:15:01.839Z,6.90
2022-10-04T15:17:37.880Z,3.57
2022-10-04T15:20:16.817Z,6.03
2022-10-04T15:22:53.012Z,6.20
2022-10-04T15:25:40.313Z,3.93
2022-10-04T15:28:28.249Z,3.10
2022-10-04T15:31:13.060Z,3.50
2022-10-04T15:33:58.519Z,4.20
2022-10-04T15:37:01.628Z,5.47
2022-10-04T15:40:00.286Z,7.50
2022-10-04T15:42:36.933Z,2.97
2022-10-04T15:45:23.890Z,5.40
2022-10-04T15:48:10.259Z,3.90
2022-10-04T15:50:54.933Z,5.93
2022-10-04T15:53:53.642Z,4.17
2022-10-04T15:56:23.440Z,5.97
2022-10-04T15:59:20.198Z,5.60
2022-10-04T16:01:55.821Z,6.43
2022-10-04T16:04:44.759Z,5.30
2022-10-04T16:07:36.317Z,7.50
2022-10-04T16:10:22.890Z,5.37
2022-10-04T16:13:26.961Z,5.83
2022-10-04T16:16:15.481Z,4.07
2022-10-04T16:18:53.799Z,4.50
2022-10-04T16:21:41.181Z,7.23
2022-10-04T16:24:19.613Z,4.93
2022-10-04T16:26:52.565Z,4.90
2022-10-04T16:30:21.752Z,5.60
2022-10-04T16:33:01.109Z,5.27
2022-10-04T16:35:37.601Z,8.30
2022-10-04T16:38:20.855Z,6.30
2022-10-04T16:41:13.199Z,5.43
2022-10-04T16:43:53.794Z,9.43
2022-10-04T16:46:31.368Z,5.50
2022-10-04T16:49:03.208Z,6.87
2022-10-04T16:51:57.006Z,10.40
2022-10-04T16:54:41.957Z,8.60
2022-10-04T16:57:22.185Z,7.00
2022-10-04T16:59:48.727Z,9.33
2022-10-04T17:02:15.271Z,8.77
2022-10-04T17:04:44.836Z,7.87
2022-10-04T17:07:23.088Z,6.63
2022-10-04T17:10:20.920Z,5.27
2022-10-04T17:13:06.118Z,6.00
2022-10-04T17:15:49.614Z,8.73
2022-10-04T17:18:21.095Z,8.83
2022-10-04T17:20:56.917Z,5.50
2022-10-04T17:23:45.373Z,7.30
2022-10-04T17:26:26.235Z,6.20
2022-10-04T17:28:57.438Z,6.30
2022-10-04T17:32:38.716Z,5.63
2022-10-04T17:35:46.952Z,9.13
2022-10-04T17:38:28.175Z,6.67
2022-10-04T17:41:01.613Z,6.20
2022-10-04T17:44:03.209Z,9.87
2022-10-04T17:46:57.389Z,6.53
2022-10-04T17:50:02.493Z,8.80
2022-10-04T17:52:59.556Z,6.67
2022-10-04T17:55:35.674Z,8.03
2022-10-04T17:58:12.329Z,10.17
2022-10-04T18:01:09.887Z,8.30
2022-10-04T18:03:52.133Z,8.03
2022-10-04T18:06:43.140Z,8.00
2022-10-04T18:09:26.638Z,5.53
2022-10-04T18:11:59.286Z,7.20
2022-10-04T18:14:47.617Z,6.60
2022-10-04T18:17:35.479Z,6.53
2022-10-04T18:20:27.658Z,8.83
2022-10-04T18:23:01.923Z,9.33
2022-10-04T18:25:31.953Z,9.67
2022-10-04T18:28:09.369Z,6.77
2022-10-04T18:30:48.896Z,6.53
2022-10-04T18:33:16.722Z,5.67
2022-10-04T18:36:06.280Z,6.43
2022-10-04T18:38:36.173Z,5.30
2022-10-04T18:41:16.108Z,8.57
2022-10-04T18:43:51.902Z,6.00
2022-10-04T18:46:21.003Z,6.77
2022-10-04T18:49:26.945Z,8.70
2022-10-04T18:52:20.911Z,8.20
2022-10-04T18:55:02.551Z,6.17
2022-10-04T18:58:21.437Z,10.03
2022-10-04T19:01:15.968Z,6.70
2022-10-04T19:04:06.766Z,8.60
2022-10-04T19:06:38.582Z,7.07
2022-10-04T19:09:17.784Z,6.73
2022-10-04T19:11:57.817Z,6.57
2022-10-04T19:14:42.320Z,7.23
2022-10-04T19:17:35.324Z,10.23
2022-10-04T19:20:19.656Z,7.63
2022-10-04T19:23:07.382Z,8.03
2022-10-04T19:26:03.074Z,6.23
2022-10-04T19:28:35.582Z,7.30
2022-10-04T19:31:21.323Z,10.30
2022-10-04T19:33:59.713Z,6.77
2022-10-04T19:36:45.378Z,5.73
2022-10-04T19:39:36.969Z,6.00
2022-10-04T19:42:11.243Z,5.30
2022-10-04T19:45:16.699Z,5.40
2022-10-04T19:47:56.620Z,4.87
2022-10-04T19:50:37.067Z,7.67
2022-10-04T19:53:28.458Z,5.97
2022-10-04T19:55:56.355Z,10.10
2022-10-04T19:58:38.785Z,9.67
2022-10-04T20:01:25.752Z,6.57
2022-10-04T20:04:11.947Z,8.80
2022-10-04T20:06:47.957Z,6.53
2022-10-04T20:09:36.835Z,7.83
2022-10-04T20:12:29.342Z,6.33
2022-10-04T20:15:27.998Z,5.00
2022-10-04T20:17:55.744Z,5.03
2022-10-04T20:20:41.236Z,8.90
2022-10-04T20:23:09.056Z,6.60
2022-10-04T20:25:45.387Z,8.43
2022-10-04T20:28:27.118Z,6.70
2022-10-04T20:30:57.820Z,5.20
2022-10-04T20:33:37.075Z,6.33
2022-10-04T20:36:06.737Z,8.00
2022-10-04T20:38:49.187Z,10.63
2022-10-04T20:41:27.940Z,8.33
2022-10-04T20:43:57.140Z,7.13
2022-10-04T20:46:25.763Z,6.63
2022-10-04T20:48:54.180Z,9.33
2022-10-04T20:51:24.014Z,7.40
2022-10-04T20:53:50.977Z,7.10
2022-10-04T20:56:26.549Z,8.30
2022-10-04T20:59:01.481Z,8.27
2022-10-04T21:01:36.968Z,7.80
2022-10-04T21:04:14.585Z,9.50
2022-10-04T21:06:56.038Z,8.83
2022-10-04T21:09:23.432Z,10.67
2022-10-04T21:11:52.095Z,9.90
2022-10-04T21:14:23.360Z,7.00
2022-10-04T21:16:52.660Z,11.73
2022-10-04T21:19:32.058Z,12.27
2022-10-04T21:22:09.824Z,16.50
2022-10-04T21:24:42.163Z,13.70
2022-10-04T21:27:11.224Z,17.63
2022-10-04T21:29:38.757Z,18.77
2022-10-04T21:32:05.998Z,15.13
2022-10-04T21:34:52.569Z,14.97
2022-10-04T21:37:19.824Z,11.70
2022-10-04T21:39:46.384Z,10.60
2022-10-04T21:42:12.972Z,13.20
2022-10-04T21:44:39.544Z,8.40
2022-10-04T21:47:06.144Z,8.50
2022-10-04T21:49:32.776Z,8.23
2022-10-04T21:51:59.357Z,11.40
2022-10-04T21:54:25.991Z,8.00
2022-10-04T21:56:53.818Z,7.97
2022-10-04T21:59:20.981Z,6.87
2022-10-04T22:01:47.909Z,8.27
2022-10-04T22:04:14.512Z,6.73
2022-10-04T22:06:41.641Z,8.53
2022-10-04T22:09:08.963Z,11.03
2022-10-04T22:11:36.297Z,6.90
2022-10-04T22:14:03.105Z,6.43
2022-10-04T22:16:30.144Z,8.03
2022-10-04T22:18:56.822Z,8.90
2022-10-04T22:21:23.476Z,6.80
2022-10-04T22:23:50.117Z,7.00
2022-10-04T22:26:19.260Z,7.80
2022-10-04T22:28:50.931Z,8.97
2022-10-04T22:31:20.334Z,8.23
2022-10-04T22:33:49.640Z,13.53
2022-10-04T22:36:38.056Z,14.10
2022-10-04T22:39:13.040Z,8.37
2022-10-04T22:41:48.346Z,8.63
2022-10-04T22:44:19.487Z,8.93
2022-10-04T22:46:49.442Z,9.03
2022-10-04T22:49:21.040Z,11.33
2022-10-04T22:51:49.662Z,9.83
2022-10-04T22:54:19.395Z,10.57
2022-10-04T22:56:46.710Z,9.27
2022-10-04T22:59:15.995Z,7.40
2022-10-04T23:01:43.668Z,7.37
2022-10-04T23:04:16.534Z,8.33
2022-10-04T23:06:43.927Z,7.53
2022-10-04T23:09:10.794Z,9.57
2022-10-04T23:11:37.371Z,8.03
2022-10-04T23:14:04.203Z,9.50
2022-10-04T23:16:31.434Z,7.97
2022-10-04T23:19:06.511Z,9.57
2022-10-04T23:21:34.950Z,10.67
2022-10-04T23:24:15.782Z,9.20
2022-10-04T23:26:44.754Z,8.50
2022-10-04T23:29:33.372Z,8.50
2022-10-04T23:32:09.186Z,9.20
2022-10-04T23:34:38.106Z,11.93
2022-10-04T23:37:17.335Z,9.20
2022-10-04T23:39:44.739Z,11.63
2022-10-04T23:42:20.461Z,10.40
2022-10-04T23:44:49.720Z,10.50
2022-10-04T23:47:19.074Z,10.83
2022-10-04T23:49:52.196Z,10.23
2022-10-04T23:52:22.159Z,10.37
2022-10-04T23:54:50.587Z,10.63
2022-10-04T23:57:24.628Z,14.00
2022-10-04T23:59:52.051Z,8.87
